Vanderpool, Texas
Current Conditions -  °F | °C
As of 8:55 PM on Thursday 27 Nov 2014 (Local Time) from KERV Reporting Station
Clear Clear  
Wind Chill: 41°   Ceiling: Unl
Heat Index: 41°   Visibility: 10mi
Dew Point: 35°   Wind: 0mph
Humidity: 78%   Direction: NA
Pressure: 30.4"   Gusts: NA
Location:  29.75°N, 99.56°W
Report Text: KERV 280255Z AUTO 00000KT 10SM CLR 05/02 A3040 RMK AO2 T00510015
Loading
Personal Weather Stations






























Interactive Weather Map New forecast layout! Learn more

10-Day Weather Forecast

Advertisements
Track Severe Weather on mobile